Knowlton, Canada
Current Conditions -  °F | °C
As of 10:55 AM on Sunday 21 Dec 2014 (Local Time) from KEFK Reporting Station
Haze Haze  
Wind Chill: 10°   Ceiling: 2900
Heat Index: 10°   Visibility: 5mi
Dew Point:   Wind: 0mph
Humidity: 89%   Direction: NA
Pressure: 30.32"   Gusts: NA
Location:  45.22°N, 72.52°W
Report Text: KEFK 211555Z AUTO 00000KT 5SM BR OVC029 M12/M14 A3032 RMK AO2 T11251140
Loading
Personal Weather Stations






























Interactive Weather Map New forecast layout! Learn more

10-Day Weather Forecast

Advertisements
Track Severe Weather on mobile